createdAt,value
2022-12-23T00:01:05.983Z,85.93
2022-12-23T00:03:34.726Z,86.29
2022-12-23T00:06:09.462Z,86.33
2022-12-23T00:08:37.401Z,86.25
2022-12-23T00:11:05.989Z,86.14
2022-12-23T00:13:51.949Z,85.74
2022-12-23T00:16:19.595Z,85.72
2022-12-23T00:18:47.228Z,86.12
2022-12-23T00:21:18.286Z,85.99
2022-12-23T00:23:48.293Z,86.28
2022-12-23T00:26:17.514Z,86.20
2022-12-23T00:28:45.651Z,86.58
2022-12-23T00:31:13.964Z,86.49
2022-12-23T00:33:43.466Z,86.62
2022-12-23T00:36:19.034Z,86.56
2022-12-23T00:39:05.146Z,85.78
2022-12-23T00:41:50.553Z,85.90
2022-12-23T00:44:18.155Z,86.05
2022-12-23T00:46:45.802Z,85.85
2022-12-23T00:49:32.426Z,86.09
2022-12-23T00:52:02.024Z,86.31
2022-12-23T00:54:29.781Z,85.93
2022-12-23T00:56:57.323Z,86.45
2022-12-23T00:59:24.857Z,86.09
2022-12-23T01:02:09.854Z,85.84
2022-12-23T01:04:55.207Z,86.31
2022-12-23T01:07:24.831Z,85.75
2022-12-23T01:09:52.401Z,85.73
2022-12-23T01:12:20.131Z,86.53
2022-12-23T01:14:47.763Z,85.91
2022-12-23T01:17:15.925Z,86.50
2022-12-23T01:19:43.577Z,86.58
2022-12-23T01:22:11.144Z,86.45
2022-12-23T01:24:40.093Z,86.44
2022-12-23T01:27:07.676Z,85.84
2022-12-23T01:29:35.248Z,86.29
2022-12-23T01:32:02.903Z,86.26
2022-12-23T01:34:36.459Z,86.12
2022-12-23T01:37:05.110Z,86.56
2022-12-23T01:39:32.666Z,86.28
2022-12-23T01:42:19.753Z,85.76
2022-12-23T01:44:50.736Z,86.56
2022-12-23T01:47:23.541Z,86.43
2022-12-23T01:49:54.151Z,86.37
2022-12-23T01:52:22.519Z,86.10
2022-12-23T01:54:50.313Z,86.57
2022-12-23T01:57:19.278Z,86.66
2022-12-23T02:00:06.757Z,86.18
2022-12-23T02:02:55.555Z,86.43
2022-12-23T02:05:24.858Z,86.12
2022-12-23T02:08:12.178Z,86.91
2022-12-23T02:10:55.289Z,86.81
2022-12-23T02:13:32.293Z,86.83
2022-12-23T02:16:19.244Z,86.82
2022-12-23T02:19:03.057Z,86.72
2022-12-23T02:21:54.033Z,86.84
2022-12-23T02:25:01.680Z,86.34
2022-12-23T02:27:32.790Z,86.37
2022-12-23T02:30:28.150Z,86.68
2022-12-23T02:33:14.087Z,86.70
2022-12-23T02:35:47.280Z,86.40
2022-12-23T02:38:24.437Z,86.67
2022-12-23T02:40:59.907Z,86.26
2022-12-23T02:43:35.423Z,86.73
2022-12-23T02:46:10.817Z,86.84
2022-12-23T02:48:46.074Z,86.79
2022-12-23T02:51:15.958Z,86.25
2022-12-23T02:53:48.734Z,86.49
2022-12-23T02:56:18.657Z,86.12
2022-12-23T02:58:51.215Z,86.66
2022-12-23T03:01:21.626Z,86.63
2022-12-23T03:03:51.495Z,86.85
2022-12-23T03:06:23.830Z,86.82
2022-12-23T03:08:55.673Z,86.32
2022-12-23T03:11:40.073Z,86.67
2022-12-23T03:14:23.929Z,86.56
2022-12-23T03:17:01.382Z,86.31
2022-12-23T03:19:36.076Z,86.81
2022-12-23T03:22:11.169Z,86.36
2022-12-23T03:24:45.662Z,86.44
2022-12-23T03:27:20.006Z,86.75
2022-12-23T03:29:55.446Z,86.94
2022-12-23T03:32:27.183Z,86.69
2022-12-23T03:34:58.724Z,86.73
2022-12-23T03:37:28.826Z,86.68
2022-12-23T03:40:02.679Z,86.39
2022-12-23T03:42:35.556Z,86.40
2022-12-23T03:45:39.279Z,86.29
2022-12-23T03:48:03.957Z,86.59
2022-12-23T03:50:33.063Z,86.57
2022-12-23T03:53:06.543Z,86.91
2022-12-23T03:55:37.579Z,87.14
2022-12-23T03:58:11.287Z,86.77
2022-12-23T04:00:44.808Z,87.07
2022-12-23T04:03:20.339Z,86.34
2022-12-23T04:05:53.713Z,86.73
2022-12-23T04:08:27.243Z,86.53
2022-12-23T04:10:55.216Z,86.97
2022-12-23T04:13:22.751Z,86.52
2022-12-23T04:15:50.615Z,86.85
2022-12-23T04:18:19.672Z,86.54
2022-12-23T04:20:47.269Z,86.66
2022-12-23T04:23:14.868Z,86.97
2022-12-23T04:25:42.525Z,87.25
2022-12-23T04:28:10.157Z,86.87
2022-12-23T04:30:37.788Z,86.38
2022-12-23T04:33:05.353Z,87.10
2022-12-23T04:35:34.196Z,87.07
2022-12-23T04:38:01.758Z,87.12
2022-12-23T04:40:29.279Z,86.69
2022-12-23T04:42:56.798Z,86.83
2022-12-23T04:45:24.259Z,86.86
2022-12-23T04:47:51.769Z,87.17
2022-12-23T04:50:19.371Z,86.71
2022-12-23T04:52:48.221Z,87.10
2022-12-23T04:55:15.784Z,86.51
2022-12-23T04:57:43.350Z,87.23
2022-12-23T05:00:12.033Z,86.99
2022-12-23T05:02:39.663Z,87.13
2022-12-23T05:05:07.758Z,87.19
2022-12-23T05:07:35.283Z,87.07
2022-12-23T05:10:04.405Z,87.20
2022-12-23T05:12:32.594Z,86.88
2022-12-23T05:15:00.189Z,87.23
2022-12-23T05:17:27.806Z,86.97
2022-12-23T05:19:55.264Z,87.19
2022-12-23T05:22:22.798Z,86.79
2022-12-23T05:24:50.396Z,86.79
2022-12-23T05:27:19.584Z,87.18
2022-12-23T05:29:47.184Z,86.88
2022-12-23T05:32:14.695Z,86.89
2022-12-23T05:34:42.286Z,87.25
2022-12-23T05:37:10.007Z,86.93
2022-12-23T05:39:37.592Z,87.05
2022-12-23T05:42:05.543Z,87.14
2022-12-23T05:44:34.634Z,87.19
2022-12-23T05:47:02.606Z,87.27
2022-12-23T05:49:30.195Z,86.73
2022-12-23T05:51:57.713Z,87.29
2022-12-23T05:54:25.391Z,86.68
2022-12-23T05:56:52.962Z,86.78
2022-12-23T05:59:20.567Z,86.91
2022-12-23T06:01:57.323Z,86.95
2022-12-23T06:04:31.131Z,87.13
2022-12-23T06:07:10.593Z,87.08
2022-12-23T06:09:48.044Z,87.13
2022-12-23T06:12:16.831Z,87.14
2022-12-23T06:14:57.168Z,87.10
2022-12-23T06:17:34.266Z,87.30
2022-12-23T06:20:08.257Z,87.35
2022-12-23T06:22:50.568Z,87.28
2022-12-23T06:25:23.627Z,86.89
2022-12-23T06:28:09.580Z,87.28
2022-12-23T06:30:45.154Z,87.10
2022-12-23T06:33:30.391Z,86.92
2022-12-23T06:36:03.536Z,87.34
2022-12-23T06:38:33.659Z,86.83
2022-12-23T06:41:11.396Z,87.28
2022-12-23T06:43:41.469Z,86.84
2022-12-23T06:46:18.191Z,86.84
2022-12-23T06:48:52.428Z,87.41
2022-12-23T06:51:22.587Z,87.38
2022-12-23T06:53:52.976Z,86.97
2022-12-23T06:56:34.219Z,87.20
2022-12-23T07:00:03.844Z,87.01
2022-12-23T07:02:33.767Z,87.33
2022-12-23T07:05:02.845Z,87.04
2022-12-23T07:07:32.180Z,86.95
2022-12-23T07:09:59.997Z,87.40
2022-12-23T07:12:32.187Z,87.04
2022-12-23T07:14:59.957Z,87.49
2022-12-23T07:17:30.020Z,87.08
2022-12-23T07:19:57.591Z,87.46
2022-12-23T07:22:26.495Z,87.25
2022-12-23T07:24:54.967Z,87.09
2022-12-23T07:27:24.899Z,87.45
2022-12-23T07:29:52.938Z,87.47
2022-12-23T07:32:24.974Z,87.49
2022-12-23T07:34:52.810Z,87.38
2022-12-23T07:37:20.662Z,87.47
2022-12-23T07:39:50.263Z,87.14
2022-12-23T07:42:44.336Z,87.43
2022-12-23T07:45:11.596Z,87.39
2022-12-23T07:47:39.280Z,87.33
2022-12-23T07:50:15.415Z,87.42
2022-12-23T07:52:53.268Z,87.41
2022-12-23T07:55:23.252Z,87.21
2022-12-23T07:57:52.911Z,87.25
2022-12-23T08:00:22.797Z,87.34
2022-12-23T08:02:51.730Z,87.71
2022-12-23T08:05:20.129Z,87.65
2022-12-23T08:07:51.024Z,87.57
2022-12-23T08:10:19.334Z,87.74
2022-12-23T08:12:49.119Z,87.75
2022-12-23T08:15:17.457Z,87.87
2022-12-23T08:17:46.672Z,87.91
2022-12-23T08:20:29.038Z,87.55
2022-12-23T08:22:57.110Z,87.70
2022-12-23T08:25:29.779Z,87.92
2022-12-23T08:27:58.963Z,87.84
2022-12-23T08:30:27.011Z,87.98
2022-12-23T08:32:54.846Z,88.00
2022-12-23T08:35:22.400Z,87.83
2022-12-23T08:37:50.478Z,88.19
2022-12-23T08:40:23.256Z,87.95
2022-12-23T08:46:14.510Z,87.63
2022-12-23T08:48:48.646Z,87.87
2022-12-23T08:51:20.119Z,87.76
2022-12-23T08:53:49.167Z,88.05
2022-12-23T08:56:29.122Z,87.80
2022-12-23T08:59:03.146Z,87.82
2022-12-23T09:01:36.587Z,88.00
2022-12-23T09:04:07.782Z,87.89
2022-12-23T09:06:39.290Z,87.84
2022-12-23T09:09:27.526Z,88.06
2022-12-23T09:12:11.759Z,87.99
2022-12-23T09:14:42.260Z,87.82
2022-12-23T09:17:10.002Z,88.00
2022-12-23T09:19:40.036Z,88.03
2022-12-23T09:22:16.642Z,88.27
2022-12-23T09:24:44.226Z,88.18
2022-12-23T09:27:12.539Z,88.33
2022-12-23T09:29:41.877Z,88.40
2022-12-23T09:32:10.032Z,88.13
2022-12-23T09:34:38.477Z,87.92
2022-12-23T09:37:06.066Z,87.81
2022-12-23T09:39:37.515Z,87.75
2022-12-23T09:42:28.879Z,87.89
2022-12-23T09:45:26.672Z,87.86
2022-12-23T09:48:08.247Z,88.19
2022-12-23T09:50:36.294Z,87.93
2022-12-23T09:53:07.469Z,88.07
2022-12-23T09:55:47.287Z,88.11
2022-12-23T09:58:30.359Z,87.98
2022-12-23T10:01:11.738Z,87.85
2022-12-23T10:04:01.249Z,88.27
2022-12-23T10:06:56.320Z,87.97
2022-12-23T10:09:37.689Z,87.97
2022-12-23T10:12:22.215Z,88.10
2022-12-23T10:14:58.843Z,87.65
2022-12-23T10:17:38.816Z,87.59
2022-12-23T10:20:15.271Z,87.83
2022-12-23T10:22:48.845Z,87.73
2022-12-23T10:25:27.148Z,87.83
2022-12-23T10:27:59.152Z,88.00
2022-12-23T10:30:53.884Z,87.83
2022-12-23T10:33:27.890Z,87.73
2022-12-23T10:36:08.700Z,88.01
2022-12-23T10:38:55.233Z,87.79
2022-12-23T10:41:48.012Z,87.70
2022-12-23T10:45:11.037Z,87.83
2022-12-23T10:47:54.381Z,88.09
2022-12-23T10:51:00.815Z,87.98
2022-12-23T10:53:36.722Z,87.69
2022-12-23T11:05:39.198Z,87.95
2022-12-23T11:08:16.095Z,87.93
2022-12-23T11:10:49.992Z,87.56
2022-12-23T11:13:36.834Z,87.71
2022-12-23T11:16:20.900Z,87.79
2022-12-23T11:22:14.474Z,87.37
2022-12-23T11:25:46.939Z,87.53
2022-12-23T11:28:23.547Z,87.44
2022-12-23T11:34:01.388Z,87.44
2022-12-23T11:36:44.042Z,87.36
2022-12-23T11:39:37.761Z,87.63
2022-12-23T11:45:40.228Z,87.32
2022-12-23T11:48:38.495Z,87.43
2022-12-23T11:51:29.734Z,87.37
2022-12-23T11:54:05.947Z,87.26
2022-12-23T11:56:37.832Z,87.38
2022-12-23T11:59:30.288Z,87.42
2022-12-23T12:02:08.758Z,87.09
2022-12-23T12:04:44.864Z,87.13
2022-12-23T12:07:59.525Z,87.15
2022-12-23T12:11:48.740Z,87.26
2022-12-23T13:19:40.129Z,86.75
2022-12-23T13:31:44.043Z,86.66
2022-12-23T13:34:57.695Z,86.49
2022-12-23T14:48:07.634Z,86.36
2022-12-23T14:50:59.262Z,86.12
2022-12-23T14:54:05.079Z,86.33
2022-12-23T15:00:35.692Z,85.89
2022-12-23T15:10:50.468Z,86.00
2022-12-23T15:13:23.352Z,85.70
2022-12-23T15:16:01.269Z,85.74
2022-12-23T15:18:54.799Z,85.94
2022-12-23T15:21:32.299Z,85.82
2022-12-23T15:24:00.751Z,85.67
2022-12-23T15:26:31.426Z,85.61
2022-12-23T15:29:01.188Z,85.73
2022-12-23T15:31:32.052Z,85.94
2022-12-23T15:34:11.707Z,85.84
2022-12-23T15:36:45.319Z,85.62
2022-12-23T15:39:20.905Z,85.72
2022-12-23T15:41:49.238Z,85.89
2022-12-23T15:44:22.196Z,85.32
2022-12-23T15:46:50.664Z,85.46
2022-12-23T15:49:20.585Z,85.34
2022-12-23T15:52:07.810Z,85.44
2022-12-23T15:54:44.933Z,85.61
2022-12-23T15:57:17.346Z,85.71
2022-12-23T15:59:44.962Z,85.81
2022-12-23T16:05:09.953Z,85.65
2022-12-23T16:07:40.195Z,85.38
2022-12-23T16:10:15.322Z,85.82
2022-12-23T16:12:44.332Z,85.68
2022-12-23T16:15:22.778Z,85.64
2022-12-23T16:17:50.290Z,85.48
2022-12-23T16:20:24.863Z,85.18
2022-12-23T16:22:55.092Z,85.29
2022-12-23T16:25:24.987Z,85.32
2022-12-23T16:27:57.358Z,85.05
2022-12-23T16:30:30.273Z,85.26
2022-12-23T16:32:59.691Z,85.52
2022-12-23T16:35:35.712Z,85.35
2022-12-23T16:38:13.817Z,85.59
2022-12-23T16:40:42.573Z,85.49
2022-12-23T16:43:10.415Z,85.22
2022-12-23T16:45:38.424Z,85.17
2022-12-23T16:48:12.134Z,84.92
2022-12-23T16:50:40.968Z,84.95
2022-12-23T16:53:12.726Z,85.13
2022-12-23T16:55:46.203Z,85.19
2022-12-23T16:58:17.925Z,85.23
2022-12-23T17:00:45.835Z,85.24
2022-12-23T17:03:17.252Z,85.39
2022-12-23T17:05:46.910Z,85.44
2022-12-23T17:08:14.726Z,85.45
2022-12-23T17:10:44.483Z,84.86
2022-12-23T17:13:13.640Z,85.08
2022-12-23T17:15:41.110Z,85.01
2022-12-23T17:18:13.613Z,85.06
2022-12-23T17:20:42.044Z,85.18
2022-12-23T17:23:24.120Z,85.11
2022-12-23T17:25:52.163Z,85.16
2022-12-23T17:28:20.682Z,84.65
2022-12-23T17:30:56.051Z,85.16
2022-12-23T17:33:27.675Z,84.72
2022-12-23T17:35:55.911Z,84.92
2022-12-23T17:38:24.965Z,85.39
2022-12-23T17:40:52.695Z,85.29
2022-12-23T17:43:20.237Z,85.06
2022-12-23T17:45:48.154Z,85.51
2022-12-23T17:48:23.137Z,85.48
2022-12-23T17:50:52.946Z,84.97
2022-12-23T17:53:21.180Z,85.21
2022-12-23T17:55:49.966Z,85.00
2022-12-23T17:58:17.470Z,85.32
2022-12-23T18:00:45.211Z,85.35
2022-12-23T18:03:23.021Z,85.44
2022-12-23T18:05:57.255Z,85.25
2022-12-23T18:08:28.692Z,85.23
2022-12-23T18:10:59.033Z,85.33
2022-12-23T18:13:26.613Z,84.85
2022-12-23T18:15:54.158Z,85.41
2022-12-23T18:18:32.064Z,85.39
2022-12-23T18:21:06.463Z,84.99
2022-12-23T18:23:37.183Z,84.92
2022-12-23T18:26:06.301Z,84.82
2022-12-23T18:28:34.138Z,84.90
2022-12-23T18:31:01.901Z,85.39
2022-12-23T18:33:30.376Z,85.16
2022-12-23T18:35:58.396Z,85.12
2022-12-23T18:38:26.031Z,85.02
2022-12-23T18:40:54.870Z,85.17
2022-12-23T18:43:25.580Z,85.40
2022-12-23T18:45:54.269Z,84.90
2022-12-23T18:48:22.727Z,85.51
2022-12-23T18:50:50.291Z,85.01
2022-12-23T18:53:24.710Z,85.48
2022-12-23T18:55:53.620Z,85.05
2022-12-23T18:58:21.481Z,85.48
2022-12-23T19:00:52.669Z,85.47
2022-12-23T19:03:24.040Z,85.21
2022-12-23T19:05:52.812Z,85.37
2022-12-23T19:08:26.780Z,85.71
2022-12-23T19:10:56.085Z,85.44
2022-12-23T19:13:23.910Z,85.39
2022-12-23T19:15:53.142Z,84.95
2022-12-23T19:18:22.621Z,85.15
2022-12-23T19:20:50.512Z,85.11
2022-12-23T19:23:18.101Z,85.60
2022-12-23T19:25:54.539Z,85.42
2022-12-23T19:28:24.760Z,85.71
2022-12-23T19:30:53.891Z,85.87
2022-12-23T19:33:21.573Z,85.52
2022-12-23T19:35:49.167Z,85.91
2022-12-23T19:38:16.997Z,85.52
2022-12-23T19:40:45.033Z,85.82
2022-12-23T19:43:12.616Z,85.72
2022-12-23T19:45:40.226Z,85.84
2022-12-23T19:48:09.267Z,85.70
2022-12-23T19:50:36.932Z,85.96
2022-12-23T19:53:04.620Z,85.79
2022-12-23T19:55:32.294Z,85.31
2022-12-23T19:57:59.884Z,85.64
2022-12-23T20:00:27.638Z,85.92
2022-12-23T20:02:58.901Z,85.24
2022-12-23T20:05:28.203Z,85.67
2022-12-23T20:07:55.739Z,86.14
2022-12-23T20:10:23.375Z,85.44
2022-12-23T20:12:51.053Z,85.39
2022-12-23T20:15:18.622Z,85.55
2022-12-23T20:17:46.255Z,85.66
2022-12-23T20:20:14.113Z,85.73
2022-12-23T20:22:42.965Z,85.58
2022-12-23T20:25:10.918Z,85.61
2022-12-23T20:27:38.951Z,85.90
2022-12-23T20:30:07.847Z,85.68
2022-12-23T20:32:35.409Z,86.17
2022-12-23T20:35:02.999Z,85.78
2022-12-23T20:37:30.491Z,86.00
2022-12-23T20:39:59.452Z,85.86
2022-12-23T20:42:28.004Z,85.76
2022-12-23T20:44:55.570Z,85.98
2022-12-23T20:47:23.089Z,86.30
2022-12-23T20:49:50.642Z,85.83
2022-12-23T20:52:18.213Z,86.06
2022-12-23T20:54:47.224Z,85.96
2022-12-23T20:57:16.198Z,85.99
2022-12-23T20:59:43.895Z,86.21
2022-12-23T21:02:13.637Z,85.70
2022-12-23T21:04:41.390Z,85.59
2022-12-23T21:07:09.120Z,85.68
2022-12-23T21:09:36.926Z,86.23
2022-12-23T21:12:04.783Z,86.23
2022-12-23T21:14:33.847Z,85.98
2022-12-23T21:17:01.695Z,85.82
2022-12-23T21:19:29.414Z,86.28
2022-12-23T21:21:57.940Z,85.89
2022-12-23T21:24:25.688Z,86.03
2022-12-23T21:26:56.861Z,85.82
2022-12-23T21:29:26.076Z,86.31
2022-12-23T21:31:55.946Z,86.49
2022-12-23T21:34:23.665Z,86.40
2022-12-23T21:36:51.341Z,86.13
2022-12-23T21:39:19.833Z,86.52
2022-12-23T21:41:49.155Z,86.68
2022-12-23T21:44:16.700Z,86.88
2022-12-23T21:46:44.554Z,86.46
2022-12-23T21:49:13.614Z,86.43
2022-12-23T21:51:42.062Z,86.69
2022-12-23T21:54:10.427Z,86.17
2022-12-23T21:56:38.935Z,86.67
2022-12-23T21:59:08.252Z,86.99
2022-12-23T22:01:35.748Z,86.79
2022-12-23T22:04:03.273Z,86.24
2022-12-23T22:06:36.524Z,86.86
2022-12-23T22:09:05.280Z,87.04
2022-12-23T22:11:35.384Z,86.41
2022-12-23T22:14:04.895Z,86.35
2022-12-23T22:16:33.403Z,86.42
2022-12-23T22:19:02.584Z,86.52
2022-12-23T22:21:32.939Z,86.17
2022-12-23T22:24:00.535Z,86.50
2022-12-23T22:26:31.847Z,86.40
2022-12-23T22:29:01.133Z,86.90
2022-12-23T22:31:33.696Z,86.86
2022-12-23T22:34:01.415Z,86.87
2022-12-23T22:36:29.099Z,86.76
2022-12-23T22:38:59.836Z,87.16
2022-12-23T22:41:28.852Z,86.80
2022-12-23T22:43:57.142Z,86.89
2022-12-23T22:46:27.912Z,87.18
2022-12-23T22:48:56.578Z,87.20
2022-12-23T22:51:26.426Z,86.71
2022-12-23T22:53:54.333Z,87.01
2022-12-23T22:56:24.850Z,87.00
2022-12-23T22:58:53.736Z,87.00
2022-12-23T23:01:26.085Z,86.66
2022-12-23T23:03:57.325Z,87.07
2022-12-23T23:06:26.645Z,87.02
2022-12-23T23:08:55.173Z,86.94
2022-12-23T23:11:24.735Z,87.22
2022-12-23T23:13:52.733Z,87.12
2022-12-23T23:16:20.418Z,86.56
2022-12-23T23:18:47.946Z,86.53
2022-12-23T23:21:16.028Z,86.77
2022-12-23T23:23:43.556Z,87.20
2022-12-23T23:26:11.656Z,86.76
2022-12-23T23:28:41.104Z,87.27
2022-12-23T23:31:40.407Z,86.95
2022-12-23T23:33:58.125Z,86.73
2022-12-23T23:36:25.695Z,86.66
2022-12-23T23:38:53.442Z,87.23
2022-12-23T23:41:23.809Z,86.96
2022-12-23T23:43:53.167Z,86.76
2022-12-23T23:46:21.076Z,86.62
2022-12-23T23:48:48.977Z,87.11
2022-12-23T23:51:19.092Z,86.99
2022-12-23T23:53:46.641Z,86.71
2022-12-23T23:56:14.187Z,86.80
2022-12-23T23:58:41.722Z,86.73
